createdAt,value
2022-08-26T00:01:30.923Z,18.40
2022-08-26T00:03:58.721Z,18.40
2022-08-26T00:06:26.103Z,18.50
2022-08-26T00:08:52.780Z,18.40
2022-08-26T00:11:26.854Z,18.50
2022-08-26T00:13:56.839Z,18.50
2022-08-26T00:16:27.850Z,18.70
2022-08-26T00:18:54.764Z,18.50
2022-08-26T00:21:21.507Z,18.30
2022-08-26T00:23:48.442Z,18.30
2022-08-26T00:26:15.215Z,18.20
2022-08-26T00:28:41.923Z,18.10
2022-08-26T00:31:10.956Z,18.10
2022-08-26T00:33:42.989Z,18.00
2022-08-26T00:36:19.865Z,18.10
2022-08-26T00:38:48.137Z,18.00
2022-08-26T00:41:14.987Z,18.10
2022-08-26T00:43:46.249Z,18.10
2022-08-26T00:46:18.222Z,18.10
2022-08-26T00:48:47.100Z,17.90
2022-08-26T00:51:18.081Z,18.00
2022-08-26T00:53:55.696Z,17.90
2022-08-26T00:56:26.858Z,18.00
2022-08-26T00:58:55.534Z,17.90
2022-08-26T01:01:22.848Z,17.80
2022-08-26T01:03:49.764Z,18.00
2022-08-26T01:06:16.730Z,18.10
2022-08-26T01:08:43.697Z,18.20
2022-08-26T01:11:11.515Z,18.20
2022-08-26T01:13:38.446Z,18.10
2022-08-26T01:16:06.220Z,18.00
2022-08-26T01:18:33.275Z,18.00
2022-08-26T01:21:25.063Z,18.00
2022-08-26T01:23:52.188Z,18.00
2022-08-26T01:26:26.368Z,18.00
2022-08-26T01:28:55.511Z,18.00
2022-08-26T01:31:24.983Z,17.90
2022-08-26T01:33:59.621Z,17.90
2022-08-26T01:36:26.791Z,17.80
2022-08-26T01:38:54.099Z,17.70
2022-08-26T01:41:27.154Z,17.80
2022-08-26T01:43:56.585Z,17.70
2022-08-26T01:46:26.457Z,17.50
2022-08-26T01:48:55.103Z,17.50
2022-08-26T01:51:22.773Z,17.50
2022-08-26T01:53:49.698Z,17.50
2022-08-26T01:56:16.566Z,17.70
2022-08-26T01:58:46.701Z,17.60
2022-08-26T02:01:14.152Z,17.70
2022-08-26T02:03:59.991Z,17.60
2022-08-26T02:06:27.188Z,17.50
2022-08-26T02:08:55.322Z,17.50
2022-08-26T02:11:22.040Z,17.50
2022-08-26T02:13:50.030Z,17.50
2022-08-26T02:16:20.087Z,17.50
2022-08-26T02:18:47.238Z,17.40
2022-08-26T02:21:14.481Z,17.50
2022-08-26T02:23:41.739Z,17.80
2022-08-26T02:26:14.352Z,17.50
2022-08-26T02:28:50.839Z,17.40
2022-08-26T02:31:17.606Z,17.30
2022-08-26T02:33:44.366Z,17.10
2022-08-26T02:36:12.117Z,17.10
2022-08-26T02:38:40.139Z,17.30
2022-08-26T02:41:10.275Z,17.20
2022-08-26T02:43:37.307Z,17.30
2022-08-26T02:46:04.291Z,17.40
2022-08-26T02:48:31.344Z,17.50
2022-08-26T02:51:01.658Z,17.60
2022-08-26T02:53:31.685Z,17.50
2022-08-26T02:55:59.011Z,17.40
2022-08-26T02:58:26.503Z,17.20
2022-08-26T03:00:53.816Z,17.20
2022-08-26T03:03:23.609Z,17.10
2022-08-26T03:05:50.790Z,17.10
2022-08-26T03:08:17.610Z,17.00
2022-08-26T03:10:44.379Z,17.00
2022-08-26T03:13:11.135Z,17.20
2022-08-26T03:15:37.805Z,17.10
2022-08-26T03:18:04.877Z,17.20
2022-08-26T03:20:31.739Z,17.20
2022-08-26T03:22:58.549Z,17.10
2022-08-26T03:25:25.888Z,17.00
2022-08-26T03:27:53.025Z,17.10
2022-08-26T03:30:39.844Z,17.10
2022-08-26T03:33:12.774Z,17.10
2022-08-26T03:35:41.652Z,17.10
2022-08-26T03:38:09.101Z,17.00
2022-08-26T03:40:37.213Z,17.10
2022-08-26T03:43:04.881Z,17.10
2022-08-26T03:45:32.153Z,17.00
2022-08-26T03:47:59.145Z,17.00
2022-08-26T03:50:26.094Z,16.90
2022-08-26T03:52:54.642Z,16.90
2022-08-26T03:55:23.714Z,16.90
2022-08-26T03:57:50.955Z,17.00
2022-08-26T04:00:18.825Z,16.80
2022-08-26T04:02:47.090Z,16.90
2022-08-26T04:05:14.572Z,16.90
2022-08-26T04:07:42.726Z,16.70
2022-08-26T04:10:10.926Z,16.70
2022-08-26T04:12:38.554Z,16.70
2022-08-26T04:15:10.350Z,16.70
2022-08-26T04:17:37.116Z,16.80
2022-08-26T04:20:05.093Z,16.80
2022-08-26T04:22:33.533Z,17.00
2022-08-26T04:25:00.192Z,17.10
2022-08-26T04:27:27.035Z,17.00
2022-08-26T04:29:55.283Z,16.90
2022-08-26T04:32:22.859Z,17.00
2022-08-26T04:34:49.514Z,17.10
2022-08-26T04:37:16.433Z,17.20
2022-08-26T04:39:44.703Z,17.00
2022-08-26T04:42:13.403Z,16.90
2022-08-26T04:44:41.150Z,16.90
2022-08-26T04:47:07.879Z,16.90
2022-08-26T04:49:35.833Z,16.90
2022-08-26T04:52:03.423Z,16.90
2022-08-26T04:54:31.466Z,16.90
2022-08-26T04:56:58.216Z,16.90
2022-08-26T04:59:25.134Z,17.00
2022-08-26T05:01:53.256Z,17.00
2022-08-26T05:04:20.974Z,17.00
2022-08-26T05:06:48.384Z,16.90
2022-08-26T05:09:15.448Z,16.90
2022-08-26T05:11:42.192Z,17.00
2022-08-26T05:14:08.954Z,17.00
2022-08-26T05:16:35.637Z,17.00
2022-08-26T05:19:02.984Z,17.00
2022-08-26T05:21:29.755Z,17.00
2022-08-26T05:23:56.503Z,17.00
2022-08-26T05:26:24.200Z,17.10
2022-08-26T05:28:54.721Z,17.20
2022-08-26T05:31:29.070Z,17.20
2022-08-26T05:33:57.759Z,17.30
2022-08-26T05:36:26.942Z,17.30
2022-08-26T05:38:54.036Z,17.40
2022-08-26T05:41:21.729Z,17.40
2022-08-26T05:43:48.409Z,17.50
2022-08-26T05:46:15.671Z,17.50
2022-08-26T05:48:44.334Z,17.80
2022-08-26T05:51:11.780Z,18.10
2022-08-26T05:53:40.683Z,18.00
2022-08-26T05:56:11.922Z,18.00
2022-08-26T05:58:39.467Z,18.10
2022-08-26T06:01:07.743Z,18.20
2022-08-26T06:03:38.626Z,18.20
2022-08-26T06:06:09.841Z,18.30
2022-08-26T06:08:37.843Z,18.40
2022-08-26T06:11:18.267Z,18.50
2022-08-26T06:13:45.881Z,18.60
2022-08-26T06:16:16.629Z,18.70
2022-08-26T06:18:45.186Z,18.80
2022-08-26T06:21:13.703Z,18.80
2022-08-26T06:23:59.277Z,18.90
2022-08-26T06:26:27.849Z,19.00
2022-08-26T06:28:55.527Z,19.10
2022-08-26T06:31:22.955Z,19.10
2022-08-26T06:33:50.721Z,19.20
2022-08-26T06:36:22.187Z,19.30
2022-08-26T06:38:50.508Z,19.30
2022-08-26T06:41:18.054Z,19.40
2022-08-26T06:43:44.697Z,19.40
2022-08-26T06:46:12.382Z,19.50
2022-08-26T06:48:39.854Z,19.60
2022-08-26T06:51:10.484Z,19.60
2022-08-26T06:53:38.087Z,19.70
2022-08-26T06:56:09.333Z,19.80
2022-08-26T06:58:37.768Z,19.80
2022-08-26T07:01:11.324Z,19.90
2022-08-26T07:03:39.506Z,19.90
2022-08-26T07:06:06.849Z,20.00
2022-08-26T07:08:33.950Z,20.10
2022-08-26T07:11:04.571Z,20.20
2022-08-26T07:13:31.671Z,20.20
2022-08-26T07:16:03.060Z,20.30
2022-08-26T07:18:31.128Z,20.30
2022-08-26T07:20:58.256Z,20.40
2022-08-26T07:23:26.103Z,20.50
2022-08-26T07:25:52.816Z,20.60
2022-08-26T07:28:20.189Z,20.70
2022-08-26T07:30:47.007Z,20.80
2022-08-26T07:33:13.699Z,20.80
2022-08-26T07:35:40.460Z,20.90
2022-08-26T07:38:07.179Z,20.90
2022-08-26T07:40:34.601Z,21.00
2022-08-26T07:43:01.612Z,21.00
2022-08-26T07:45:29.639Z,21.10
2022-08-26T07:47:56.475Z,21.10
2022-08-26T07:50:49.243Z,21.10
2022-08-26T07:53:09.935Z,21.20
2022-08-26T07:55:37.559Z,21.20
2022-08-26T07:58:05.616Z,21.30
2022-08-26T08:00:33.473Z,21.40
2022-08-26T08:03:01.575Z,21.40
2022-08-26T08:05:33.693Z,21.40
2022-08-26T08:08:26.213Z,21.40
2022-08-26T08:10:48.894Z,21.50
2022-08-26T08:13:15.846Z,21.50
2022-08-26T08:15:42.961Z,21.50
2022-08-26T08:18:15.499Z,21.50
2022-08-26T08:20:47.608Z,21.50
2022-08-26T08:23:26.079Z,21.60
2022-08-26T08:26:01.595Z,21.70
2022-08-26T08:28:28.577Z,21.70
2022-08-26T08:30:56.287Z,21.80
2022-08-26T08:33:23.291Z,21.90
2022-08-26T08:35:50.075Z,22.10
2022-08-26T08:38:17.004Z,22.20
2022-08-26T08:40:44.781Z,22.30
2022-08-26T08:43:26.695Z,22.40
2022-08-26T08:45:59.938Z,22.60
2022-08-26T08:48:38.965Z,22.70
2022-08-26T08:51:14.505Z,22.90
2022-08-26T08:53:43.328Z,22.90
2022-08-26T08:56:23.719Z,23.10
2022-08-26T08:59:14.071Z,23.10
2022-08-26T09:01:46.999Z,23.20
2022-08-26T09:04:37.769Z,23.40
2022-08-26T09:07:06.733Z,23.40
2022-08-26T09:09:37.622Z,23.50
2022-08-26T09:12:05.875Z,23.40
2022-08-26T09:14:33.558Z,23.60
2022-08-26T09:17:15.667Z,23.60
2022-08-26T09:19:47.611Z,23.70
2022-08-26T09:22:27.681Z,23.80
2022-08-26T09:24:54.325Z,23.80
2022-08-26T09:27:38.262Z,23.90
2022-08-26T09:30:05.757Z,24.00
2022-08-26T09:32:33.072Z,24.10
2022-08-26T09:35:01.586Z,24.30
2022-08-26T09:37:39.600Z,24.40
2022-08-26T09:40:23.072Z,24.50
2022-08-26T09:43:06.907Z,24.50
2022-08-26T09:45:34.485Z,24.60
2022-08-26T09:48:01.814Z,24.70
2022-08-26T09:50:30.952Z,24.80
2022-08-26T09:53:16.125Z,24.90
2022-08-26T09:55:47.824Z,24.90
2022-08-26T09:58:31.236Z,25.00
2022-08-26T10:01:01.674Z,25.00
2022-08-26T10:03:34.443Z,25.00
2022-08-26T10:06:20.927Z,25.20
2022-08-26T10:08:54.198Z,25.30
2022-08-26T10:11:30.530Z,25.30
2022-08-26T10:14:03.501Z,25.30
2022-08-26T10:16:35.247Z,25.30
2022-08-26T10:19:06.394Z,25.20
2022-08-26T10:21:39.019Z,25.20
2022-08-26T10:24:07.855Z,25.10
2022-08-26T10:26:49.199Z,25.10
2022-08-26T10:29:20.155Z,25.10
2022-08-26T10:32:02.558Z,25.40
2022-08-26T10:34:31.960Z,25.40
2022-08-26T10:37:15.013Z,25.60
2022-08-26T10:39:58.801Z,25.60
2022-08-26T10:42:44.653Z,25.60
2022-08-26T10:45:23.002Z,25.60
2022-08-26T10:47:55.797Z,25.60
2022-08-26T10:50:26.300Z,25.50
2022-08-26T10:53:15.596Z,25.30
2022-08-26T10:55:59.752Z,25.10
2022-08-26T10:58:44.620Z,24.90
2022-08-26T11:01:36.362Z,24.70
2022-08-26T11:04:17.996Z,24.60
2022-08-26T11:06:46.103Z,24.30
2022-08-26T11:09:33.041Z,24.10
2022-08-26T11:12:05.138Z,23.70
2022-08-26T11:14:41.120Z,22.60
2022-08-26T11:17:40.585Z,21.70
2022-08-26T11:20:13.211Z,20.50
2022-08-26T11:22:47.585Z,19.50
2022-08-26T11:25:15.950Z,19.20
2022-08-26T11:27:47.724Z,18.90
2022-08-26T11:30:15.846Z,18.60
2022-08-26T11:33:06.232Z,18.20
2022-08-26T11:35:37.698Z,17.90
2022-08-26T11:38:22.822Z,17.70
2022-08-26T11:41:16.361Z,17.70
2022-08-26T11:43:43.589Z,17.60
2022-08-26T11:46:11.689Z,17.60
2022-08-26T11:48:40.375Z,17.70
2022-08-26T11:51:21.769Z,17.70
2022-08-26T11:53:49.139Z,17.70
2022-08-26T11:56:15.966Z,17.80
2022-08-26T11:58:43.992Z,18.10
2022-08-26T12:01:11.670Z,18.30
2022-08-26T12:03:44.211Z,18.30
2022-08-26T12:06:14.160Z,18.30
2022-08-26T12:08:43.847Z,18.30
2022-08-26T12:11:13.764Z,18.30
2022-08-26T12:13:41.653Z,18.20
2022-08-26T12:16:09.496Z,18.20
2022-08-26T12:18:38.134Z,18.40
2022-08-26T12:21:16.376Z,18.40
2022-08-26T12:23:47.061Z,18.60
2022-08-26T12:26:24.606Z,18.70
2022-08-26T12:28:57.478Z,18.80
2022-08-26T12:31:26.846Z,18.80
2022-08-26T12:33:54.723Z,18.90
2022-08-26T12:36:32.444Z,19.00
2022-08-26T12:39:09.435Z,19.10
2022-08-26T12:41:37.803Z,19.30
2022-08-26T12:44:04.547Z,19.30
2022-08-26T12:46:31.429Z,19.30
2022-08-26T12:49:01.288Z,19.40
2022-08-26T12:51:29.381Z,19.50
2022-08-26T12:53:56.694Z,19.60
2022-08-26T12:56:32.467Z,19.60
2022-08-26T12:59:17.462Z,19.70
2022-08-26T13:01:44.586Z,19.80
2022-08-26T13:04:30.093Z,19.90
2022-08-26T13:07:18.938Z,19.90
2022-08-26T13:09:45.646Z,19.90
2022-08-26T13:12:12.712Z,20.00
2022-08-26T13:14:40.527Z,20.00
2022-08-26T13:17:07.230Z,20.10
2022-08-26T13:19:33.987Z,20.20
2022-08-26T13:22:00.718Z,20.20
2022-08-26T13:24:38.589Z,20.30
2022-08-26T13:27:06.389Z,20.30
2022-08-26T13:29:33.101Z,20.40
2022-08-26T13:32:00.263Z,20.50
2022-08-26T13:34:27.181Z,20.40
2022-08-26T13:36:54.909Z,20.40
2022-08-26T13:39:22.252Z,20.50
2022-08-26T13:41:49.306Z,20.60
2022-08-26T13:44:16.014Z,20.70
2022-08-26T13:46:43.045Z,20.70
2022-08-26T13:49:10.146Z,20.70
2022-08-26T13:51:37.781Z,20.80
2022-08-26T13:54:05.169Z,20.70
2022-08-26T13:56:32.424Z,20.80
2022-08-26T13:58:59.789Z,20.80
2022-08-26T14:01:27.627Z,20.90
2022-08-26T14:03:54.486Z,20.90
2022-08-26T14:06:21.635Z,20.90
2022-08-26T14:08:48.720Z,20.90
2022-08-26T14:11:15.434Z,20.90
2022-08-26T14:13:42.267Z,21.00
2022-08-26T14:16:10.287Z,21.00
2022-08-26T14:18:42.043Z,21.00
2022-08-26T14:21:11.385Z,21.00
2022-08-26T14:23:38.184Z,21.10
2022-08-26T14:26:08.222Z,21.20
2022-08-26T14:28:35.501Z,21.40
2022-08-26T14:31:02.553Z,21.50
2022-08-26T14:33:32.523Z,21.40
2022-08-26T14:36:19.705Z,21.60
2022-08-26T14:38:46.854Z,21.50
2022-08-26T14:41:16.422Z,21.40
2022-08-26T14:43:46.758Z,21.40
2022-08-26T14:46:14.378Z,21.40
2022-08-26T14:48:41.114Z,21.50
2022-08-26T14:51:07.930Z,21.50
2022-08-26T14:53:53.500Z,21.50
2022-08-26T14:56:20.296Z,21.50
2022-08-26T14:58:47.070Z,21.50
2022-08-26T15:01:15.032Z,21.50
2022-08-26T15:03:42.616Z,21.60
2022-08-26T15:06:10.490Z,21.50
2022-08-26T15:08:37.394Z,21.60
2022-08-26T15:11:04.121Z,21.60
2022-08-26T15:13:30.954Z,21.60
2022-08-26T15:15:57.766Z,21.60
2022-08-26T15:18:24.869Z,21.60
2022-08-26T15:20:51.527Z,21.60
2022-08-26T15:23:18.360Z,21.60
2022-08-26T15:25:45.046Z,21.60
2022-08-26T15:28:12.250Z,21.60
2022-08-26T15:30:38.900Z,21.60
2022-08-26T15:33:05.666Z,21.60
2022-08-26T15:35:43.115Z,21.60
2022-08-26T15:38:10.657Z,21.50
2022-08-26T15:40:37.749Z,21.50
2022-08-26T15:43:18.437Z,21.50
2022-08-26T15:45:52.032Z,21.50
2022-08-26T15:48:19.038Z,21.50
2022-08-26T15:51:04.356Z,21.50
2022-08-26T15:53:32.282Z,21.50
2022-08-26T15:55:59.830Z,21.50
2022-08-26T15:58:27.087Z,21.50
2022-08-26T16:00:54.468Z,21.50
2022-08-26T16:03:21.472Z,21.50
2022-08-26T16:05:48.415Z,21.50
2022-08-26T16:08:15.555Z,21.50
2022-08-26T16:10:47.906Z,21.50
2022-08-26T16:13:17.994Z,21.50
2022-08-26T16:15:44.980Z,21.40
2022-08-26T16:18:13.089Z,21.40
2022-08-26T16:20:57.412Z,21.10
2022-08-26T16:23:34.916Z,21.30
2022-08-26T16:26:08.207Z,21.20
2022-08-26T16:28:37.532Z,21.20
2022-08-26T16:31:04.999Z,21.10
2022-08-26T16:33:31.716Z,21.10
2022-08-26T16:35:58.710Z,21.10
2022-08-26T16:38:25.668Z,21.10
2022-08-26T16:40:52.359Z,21.10
2022-08-26T16:43:19.043Z,20.90
2022-08-26T16:45:45.799Z,20.90
2022-08-26T16:48:12.490Z,20.80
2022-08-26T16:50:40.695Z,20.80
2022-08-26T16:55:40.237Z,20.60
2022-08-26T16:58:06.945Z,20.60
2022-08-26T17:00:34.625Z,20.60
2022-08-26T17:03:01.742Z,20.60
2022-08-26T17:05:29.069Z,20.50
2022-08-26T17:07:56.912Z,20.50
2022-08-26T17:10:27.027Z,20.50
2022-08-26T17:12:54.290Z,20.50
2022-08-26T17:15:23.679Z,20.50
2022-08-26T17:17:51.433Z,20.50
2022-08-26T17:20:18.719Z,20.50
2022-08-26T17:22:47.343Z,20.50
2022-08-26T17:25:16.195Z,20.50
2022-08-26T17:27:43.178Z,20.50
2022-08-26T17:30:10.248Z,20.50
2022-08-26T17:32:37.379Z,20.40
2022-08-26T17:35:05.551Z,20.40
2022-08-26T17:37:32.291Z,20.30
2022-08-26T17:39:59.127Z,20.30
2022-08-26T17:42:31.501Z,20.30
2022-08-26T17:44:58.652Z,20.30
2022-08-26T17:47:25.301Z,20.30
2022-08-26T17:49:52.294Z,20.20
2022-08-26T17:52:18.934Z,20.20
2022-08-26T17:54:45.598Z,20.20
2022-08-26T17:57:12.466Z,20.10
2022-08-26T17:59:39.160Z,20.00
2022-08-26T18:02:07.736Z,19.90
2022-08-26T18:04:34.499Z,19.90
2022-08-26T18:07:01.658Z,19.90
2022-08-26T18:09:31.637Z,19.80
2022-08-26T18:11:58.517Z,19.80
2022-08-26T18:14:25.346Z,19.80
2022-08-26T18:16:52.123Z,19.80
2022-08-26T18:19:18.907Z,19.70
2022-08-26T18:21:45.819Z,19.70
2022-08-26T18:24:14.187Z,19.60
2022-08-26T18:26:47.982Z,19.60
2022-08-26T18:29:15.829Z,19.60
2022-08-26T18:31:42.518Z,19.60
2022-08-26T18:34:12.893Z,19.50
2022-08-26T18:36:42.417Z,19.50
2022-08-26T18:39:09.902Z,19.50
2022-08-26T18:41:41.189Z,19.50
2022-08-26T18:44:13.303Z,19.50
2022-08-26T18:46:40.536Z,19.50
2022-08-26T18:49:08.072Z,19.40
2022-08-26T18:51:34.925Z,19.50
2022-08-26T18:54:02.735Z,19.50
2022-08-26T18:56:29.541Z,19.50
2022-08-26T18:58:56.237Z,19.50
2022-08-26T19:01:27.114Z,19.50
2022-08-26T19:03:55.066Z,19.50
2022-08-26T19:06:22.522Z,19.50
2022-08-26T19:08:49.809Z,19.50
2022-08-26T19:11:17.541Z,19.40
2022-08-26T19:13:57.935Z,19.40
2022-08-26T19:16:26.943Z,19.40
2022-08-26T19:18:54.118Z,19.40
2022-08-26T19:21:21.885Z,19.40
2022-08-26T19:23:48.987Z,19.50
2022-08-26T19:26:15.723Z,19.40
2022-08-26T19:28:42.813Z,19.40
2022-08-26T19:31:13.026Z,19.40
2022-08-26T19:33:41.812Z,19.40
2022-08-26T19:36:14.141Z,19.40
2022-08-26T19:38:42.807Z,19.50
2022-08-26T19:41:14.211Z,19.50
2022-08-26T19:43:40.889Z,19.50
2022-08-26T19:46:12.845Z,19.50
2022-08-26T19:48:40.411Z,19.50
2022-08-26T19:51:07.506Z,19.60
2022-08-26T19:53:34.236Z,19.50
2022-08-26T19:56:00.979Z,19.50
2022-08-26T19:58:28.069Z,19.50
2022-08-26T20:00:54.873Z,19.50
2022-08-26T20:03:23.863Z,19.40
2022-08-26T20:05:50.563Z,19.60
2022-08-26T20:08:22.408Z,19.60
2022-08-26T20:10:50.033Z,19.60
2022-08-26T20:13:16.724Z,19.60
2022-08-26T20:15:43.422Z,19.60
2022-08-26T20:18:30.072Z,19.60
2022-08-26T20:21:15.525Z,19.60
2022-08-26T20:23:43.633Z,19.60
2022-08-26T20:26:10.414Z,19.60
2022-08-26T20:28:37.110Z,19.60
2022-08-26T20:31:03.866Z,19.60
2022-08-26T20:33:31.980Z,19.60
2022-08-26T20:36:13.080Z,19.60
2022-08-26T20:38:39.763Z,19.60
2022-08-26T20:41:06.421Z,19.60
2022-08-26T20:43:33.240Z,19.60
2022-08-26T20:46:00.543Z,19.60
2022-08-26T20:48:27.344Z,19.50
2022-08-26T20:51:00.136Z,19.50
2022-08-26T20:53:28.529Z,19.40
2022-08-26T20:55:59.098Z,19.30
2022-08-26T20:58:25.770Z,19.10
2022-08-26T21:00:52.597Z,19.10
2022-08-26T21:03:19.325Z,19.00
2022-08-26T21:05:46.609Z,19.00
2022-08-26T21:08:13.254Z,18.90
2022-08-26T21:10:40.511Z,18.90
2022-08-26T21:13:07.733Z,18.90
2022-08-26T21:15:35.470Z,18.90
2022-08-26T21:18:03.589Z,18.90
2022-08-26T21:20:30.700Z,18.90
2022-08-26T21:22:57.358Z,18.90
2022-08-26T21:25:24.918Z,18.90
2022-08-26T21:27:51.610Z,18.90
2022-08-26T21:30:18.367Z,18.90
2022-08-26T21:32:45.050Z,18.90
2022-08-26T21:35:12.821Z,18.90
2022-08-26T21:37:39.798Z,18.90
2022-08-26T21:40:07.479Z,18.90
2022-08-26T21:42:35.006Z,18.80
2022-08-26T21:45:02.375Z,18.90
2022-08-26T21:47:30.245Z,18.80
2022-08-26T21:49:56.935Z,18.80
2022-08-26T21:52:23.799Z,18.80
2022-08-26T21:54:51.239Z,18.80
2022-08-26T21:57:19.120Z,18.80
2022-08-26T21:59:45.793Z,18.80
2022-08-26T22:05:04.342Z,18.90
2022-08-26T22:07:31.164Z,18.90
2022-08-26T22:09:57.967Z,18.90
2022-08-26T22:12:24.631Z,18.90
2022-08-26T22:14:51.345Z,18.90
2022-08-26T22:17:18.087Z,18.80
2022-08-26T22:19:46.204Z,18.80
2022-08-26T22:22:13.809Z,18.80
2022-08-26T22:24:40.550Z,18.80
2022-08-26T22:27:07.384Z,18.80
2022-08-26T22:29:34.305Z,18.80
2022-08-26T22:32:01.637Z,18.80
2022-08-26T22:34:28.441Z,18.70
2022-08-26T22:36:55.914Z,18.70
2022-08-26T22:39:24.702Z,18.70
2022-08-26T22:41:52.559Z,18.60
2022-08-26T22:44:20.450Z,18.60
2022-08-26T22:46:47.659Z,18.60
2022-08-26T22:49:17.571Z,18.60
2022-08-26T22:51:45.118Z,18.60
2022-08-26T22:54:12.095Z,18.60
2022-08-26T22:56:39.151Z,18.60
2022-08-26T22:59:07.852Z,18.60
2022-08-26T23:01:36.337Z,18.60
2022-08-26T23:04:03.675Z,18.70
2022-08-26T23:06:30.426Z,18.60
2022-08-26T23:08:57.090Z,18.70
2022-08-26T23:11:23.771Z,18.70
2022-08-26T23:13:50.515Z,18.70
2022-08-26T23:16:17.261Z,18.60
2022-08-26T23:18:44.028Z,18.50
2022-08-26T23:21:10.795Z,18.60
2022-08-26T23:23:38.471Z,18.60
2022-08-26T23:26:06.452Z,18.50
2022-08-26T23:28:33.361Z,18.50
2022-08-26T23:31:00.562Z,18.50
2022-08-26T23:33:47.383Z,18.50
2022-08-26T23:36:17.807Z,18.50
2022-08-26T23:38:47.652Z,18.50
2022-08-26T23:41:19.285Z,18.50
2022-08-26T23:43:45.982Z,18.60
2022-08-26T23:46:12.654Z,18.50
2022-08-26T23:48:39.554Z,18.50
2022-08-26T23:51:24.922Z,18.50
2022-08-26T23:53:51.735Z,18.50
2022-08-26T23:56:18.750Z,18.40
2022-08-26T23:58:49.947Z,18.40
